createdAt,value
2023-03-22T00:01:27.646Z,99457.50
2023-03-22T00:03:54.586Z,99457.50
2023-03-22T00:06:21.425Z,99460.03
2023-03-22T00:08:53.269Z,99447.06
2023-03-22T00:11:22.740Z,99436.00
2023-03-22T00:13:52.669Z,99439.84
2023-03-22T00:16:20.036Z,99448.13
2023-03-22T00:18:47.038Z,99451.47
2023-03-22T00:21:15.878Z,99441.50
2023-03-22T00:23:43.518Z,99447.63
2023-03-22T00:26:12.219Z,99451.94
2023-03-22T00:28:39.834Z,99440.66
2023-03-22T00:31:07.345Z,99429.88
2023-03-22T00:33:34.863Z,99430.72
2023-03-22T00:36:04.996Z,99430.50
2023-03-22T00:38:42.892Z,99432.50
2023-03-22T00:41:22.801Z,99435.16
2023-03-22T00:43:51.211Z,99433.38
2023-03-22T00:46:20.741Z,99430.50
2023-03-22T00:48:47.970Z,99421.72
2023-03-22T00:51:15.963Z,99416.09
2023-03-22T00:53:43.814Z,99416.50
2023-03-22T00:56:15.867Z,99419.88
2023-03-22T00:58:57.947Z,99423.56
2023-03-22T01:01:24.989Z,99417.91
2023-03-22T01:03:51.852Z,99418.34
2023-03-22T01:06:18.986Z,99414.19
2023-03-22T01:08:45.845Z,99416.47
2023-03-22T01:11:13.045Z,99420.91
2023-03-22T01:13:41.959Z,99423.69
2023-03-22T01:16:10.012Z,99418.63
2023-03-22T01:18:37.592Z,99419.69
2023-03-22T01:21:05.360Z,99418.97
2023-03-22T01:23:32.517Z,99427.25
2023-03-22T01:25:59.647Z,99423.75
2023-03-22T01:28:27.299Z,99419.44
2023-03-22T01:30:55.484Z,99421.75
2023-03-22T01:33:22.641Z,99426.56
2023-03-22T01:35:51.054Z,99431.94
2023-03-22T01:38:18.171Z,99427.34
2023-03-22T01:40:53.275Z,99421.75
2023-03-22T01:43:20.974Z,99427.41
2023-03-22T01:45:53.126Z,99429.66
2023-03-22T01:48:34.273Z,99432.44
2023-03-22T01:51:12.273Z,99413.97
2023-03-22T01:54:39.310Z,99425.72
2023-03-22T01:57:19.481Z,99422.63
2023-03-22T01:59:47.606Z,99427.28
2023-03-22T02:02:40.541Z,99435.34
2023-03-22T02:05:22.323Z,99427.34
2023-03-22T02:07:50.677Z,99414.44
2023-03-22T02:10:26.030Z,99421.28
2023-03-22T02:13:31.835Z,99416.50
2023-03-22T02:16:34.854Z,99426.59
2023-03-22T02:19:29.428Z,99427.28
2023-03-22T02:22:32.133Z,99428.41
2023-03-22T02:25:35.923Z,99422.78
2023-03-22T02:28:15.780Z,99425.38
2023-03-22T02:31:01.105Z,99416.13
2023-03-22T02:33:54.587Z,99414.59
2023-03-22T02:36:46.265Z,99436.44
2023-03-22T02:39:31.611Z,99429.56
2023-03-22T02:42:07.736Z,99425.44
2023-03-22T02:44:42.303Z,99420.63
2023-03-22T02:47:24.745Z,99412.03
2023-03-22T02:50:29.466Z,99409.88
2023-03-22T02:53:18.866Z,99405.91
2023-03-22T02:55:55.871Z,99415.69
2023-03-22T02:58:35.868Z,99413.81
2023-03-22T03:01:12.216Z,99418.84
2023-03-22T03:03:39.788Z,99414.66
2023-03-22T03:06:17.162Z,99408.19
2023-03-22T03:08:46.866Z,99414.91
2023-03-22T03:11:14.251Z,99409.50
2023-03-22T03:13:42.021Z,99408.94
2023-03-22T03:16:13.370Z,99411.31
2023-03-22T03:18:46.302Z,99406.25
2023-03-22T03:21:32.789Z,99412.78
2023-03-22T03:24:11.455Z,99402.84
2023-03-22T03:26:56.679Z,99406.44
2023-03-22T03:29:44.070Z,99408.09
2023-03-22T03:32:28.537Z,99408.59
2023-03-22T03:35:05.528Z,99417.34
2023-03-22T03:37:48.394Z,99416.25
2023-03-22T03:40:23.236Z,99410.41
2023-03-22T03:42:55.999Z,99410.75
2023-03-22T03:45:25.161Z,99412.28
2023-03-22T03:47:58.116Z,99411.81
2023-03-22T03:50:26.918Z,99409.31
2023-03-22T03:52:55.982Z,99403.44
2023-03-22T03:55:24.121Z,99405.28
2023-03-22T03:57:51.044Z,99406.03
2023-03-22T04:00:18.960Z,99404.38
2023-03-22T04:03:18.571Z,99411.53
2023-03-22T04:06:04.256Z,99413.53
2023-03-22T04:08:35.963Z,99417.97
2023-03-22T04:11:03.248Z,99419.59
2023-03-22T04:13:31.600Z,99419.44
2023-03-22T04:16:02.367Z,99420.69
2023-03-22T04:18:33.645Z,99427.91
2023-03-22T04:21:03.849Z,99430.09
2023-03-22T04:23:38.045Z,99441.75
2023-03-22T04:26:05.974Z,99442.72
2023-03-22T04:28:43.494Z,99437.19
2023-03-22T04:31:12.281Z,99434.44
2023-03-22T04:34:05.846Z,99445.47
2023-03-22T04:36:49.805Z,99452.09
2023-03-22T04:39:37.237Z,99456.31
2023-03-22T04:42:25.398Z,99456.78
2023-03-22T04:45:04.097Z,99466.38
2023-03-22T04:47:31.666Z,99476.97
2023-03-22T04:49:59.728Z,99473.19
2023-03-22T04:52:28.330Z,99467.91
2023-03-22T04:54:56.646Z,99473.97
2023-03-22T04:57:24.789Z,99478.03
2023-03-22T04:59:51.879Z,99479.94
2023-03-22T05:02:18.847Z,99494.03
2023-03-22T05:04:47.894Z,99499.63
2023-03-22T05:07:34.898Z,99495.53
2023-03-22T05:10:03.669Z,99495.53
2023-03-22T05:12:31.337Z,99493.81
2023-03-22T05:15:06.185Z,99503.19
2023-03-22T05:17:36.656Z,99504.94
2023-03-22T05:20:10.412Z,99502.84
2023-03-22T05:22:40.989Z,99507.78
2023-03-22T05:25:10.791Z,99499.69
2023-03-22T05:27:40.669Z,99502.38
2023-03-22T05:30:33.880Z,99506.94
2023-03-22T05:33:21.675Z,99513.16
2023-03-22T05:35:51.974Z,99510.84
2023-03-22T05:38:19.258Z,99512.13
2023-03-22T05:40:50.439Z,99513.00
2023-03-22T05:43:17.860Z,99515.09
2023-03-22T05:45:49.204Z,99522.44
2023-03-22T05:48:31.968Z,99520.16
2023-03-22T05:50:58.918Z,99527.41
2023-03-22T05:53:31.306Z,99533.16
2023-03-22T05:56:05.439Z,99532.34
2023-03-22T05:58:34.006Z,99528.34
2023-03-22T06:01:06.795Z,99544.22
2023-03-22T06:04:03.089Z,99551.91
2023-03-22T06:06:50.594Z,99547.59
2023-03-22T06:09:32.797Z,99551.53
2023-03-22T06:12:01.242Z,99556.28
2023-03-22T06:14:28.981Z,99568.06
2023-03-22T06:17:31.541Z,99562.75
2023-03-22T06:19:58.874Z,99567.22
2023-03-22T06:22:26.016Z,99571.59
2023-03-22T06:24:52.835Z,99586.97
2023-03-22T06:27:31.128Z,99588.91
2023-03-22T06:29:58.124Z,99591.34
2023-03-22T06:32:27.180Z,99589.66
2023-03-22T06:34:56.033Z,99598.09
2023-03-22T06:37:24.586Z,99603.31
2023-03-22T06:39:52.331Z,99608.50
2023-03-22T06:42:21.937Z,99605.94
2023-03-22T06:44:59.077Z,99605.16
2023-03-22T06:47:29.401Z,99612.25
2023-03-22T06:50:05.859Z,99611.75
2023-03-22T06:52:58.639Z,99623.78
2023-03-22T06:55:26.330Z,99618.72
2023-03-22T06:57:53.463Z,99620.75
2023-03-22T07:00:21.162Z,99617.22
2023-03-22T07:02:48.073Z,99604.88
2023-03-22T07:05:31.636Z,99606.31
2023-03-22T07:07:58.583Z,99607.63
2023-03-22T07:10:26.804Z,99607.72
2023-03-22T07:12:53.614Z,99614.03
2023-03-22T07:15:24.436Z,99614.97
2023-03-22T07:17:58.062Z,99624.13
2023-03-22T07:20:24.989Z,99629.16
2023-03-22T07:22:51.878Z,99621.09
2023-03-22T07:25:21.082Z,99631.56
2023-03-22T07:27:52.151Z,99643.25
2023-03-22T07:30:21.426Z,99640.97
2023-03-22T07:32:48.400Z,99631.00
2023-03-22T07:35:16.930Z,99629.06
2023-03-22T07:37:45.041Z,99630.75
2023-03-22T07:40:21.288Z,99637.16
2023-03-22T07:42:51.476Z,99635.16
2023-03-22T07:45:36.837Z,99630.63
2023-03-22T07:48:23.785Z,99628.34
2023-03-22T07:51:06.130Z,99628.34
2023-03-22T07:53:33.062Z,99632.41
2023-03-22T07:56:00.650Z,99626.53
2023-03-22T07:58:27.617Z,99626.94
2023-03-22T08:00:56.940Z,99636.13
2023-03-22T08:03:54.615Z,99637.09
2023-03-22T08:06:42.868Z,99634.22
2023-03-22T08:09:11.636Z,99647.19
2023-03-22T08:11:38.582Z,99639.19
2023-03-22T08:14:06.083Z,99643.47
2023-03-22T08:16:36.068Z,99635.34
2023-03-22T08:19:05.050Z,99636.41
2023-03-22T08:21:36.337Z,99645.69
2023-03-22T08:24:04.988Z,99634.41
2023-03-22T08:26:37.983Z,99632.31
2023-03-22T08:29:13.314Z,99645.69
2023-03-22T08:31:47.142Z,99652.06
2023-03-22T08:34:14.110Z,99647.38
2023-03-22T08:36:41.169Z,99661.53
2023-03-22T08:39:09.963Z,99657.31
2023-03-22T08:41:51.063Z,99671.19
2023-03-22T08:44:17.982Z,99669.72
2023-03-22T08:46:44.863Z,99672.63
2023-03-22T08:49:11.984Z,99673.66
2023-03-22T08:51:42.896Z,99674.06
2023-03-22T08:54:17.310Z,99668.16
2023-03-22T08:56:50.439Z,99675.84
2023-03-22T08:59:34.242Z,99669.47
2023-03-22T09:02:17.457Z,99676.19
2023-03-22T09:04:44.394Z,99683.91
2023-03-22T09:07:12.111Z,99684.25
2023-03-22T09:09:40.140Z,99682.44
2023-03-22T09:12:07.808Z,99675.72
2023-03-22T09:14:36.396Z,99682.22
2023-03-22T09:17:05.263Z,99680.66
2023-03-22T09:19:32.576Z,99680.31
2023-03-22T09:21:59.558Z,99678.47
2023-03-22T09:24:41.248Z,99678.75
2023-03-22T09:27:08.414Z,99669.25
2023-03-22T09:29:35.670Z,99664.41
2023-03-22T09:32:07.376Z,99660.44
2023-03-22T09:34:36.980Z,99666.69
2023-03-22T09:37:04.865Z,99674.66
2023-03-22T09:39:44.696Z,99674.28
2023-03-22T09:42:28.360Z,99676.22
2023-03-22T09:44:57.744Z,99679.09
2023-03-22T09:47:48.820Z,99671.03
2023-03-22T09:50:20.554Z,99666.53
2023-03-22T09:52:48.064Z,99667.63
2023-03-22T09:55:56.832Z,99670.41
2023-03-22T09:58:45.552Z,99662.50
2023-03-22T10:01:35.237Z,99666.31
2023-03-22T10:04:10.399Z,99671.25
2023-03-22T10:06:37.503Z,99665.72
2023-03-22T10:09:34.932Z,99667.66
2023-03-22T10:12:16.587Z,99657.03
2023-03-22T10:14:57.707Z,99668.28
2023-03-22T10:17:27.226Z,99677.06
2023-03-22T10:20:18.718Z,99678.28
2023-03-22T10:22:47.168Z,99676.78
2023-03-22T10:25:20.012Z,99673.69
2023-03-22T10:27:50.535Z,99668.53
2023-03-22T10:30:23.808Z,99665.16
2023-03-22T10:32:58.146Z,99668.19
2023-03-22T10:35:25.995Z,99661.81
2023-03-22T10:37:56.088Z,99665.34
2023-03-22T10:40:33.259Z,99662.63
2023-03-22T10:43:06.226Z,99663.09
2023-03-22T10:45:35.669Z,99657.25
2023-03-22T10:48:07.293Z,99662.34
2023-03-22T10:50:37.205Z,99655.19
2023-03-22T10:53:04.523Z,99654.16
2023-03-22T10:55:31.360Z,99648.59
2023-03-22T10:58:12.241Z,99650.13
2023-03-22T11:00:44.054Z,99645.53
2023-03-22T11:03:24.896Z,99645.09
2023-03-22T11:06:02.710Z,99640.75
2023-03-22T11:08:29.687Z,99635.19
2023-03-22T11:11:00.377Z,99639.31
2023-03-22T11:13:28.150Z,99630.09
2023-03-22T11:16:01.429Z,99626.38
2023-03-22T11:18:34.108Z,99636.19
2023-03-22T11:21:07.680Z,99631.31
2023-03-22T11:23:38.634Z,99627.16
2023-03-22T11:26:09.990Z,99634.06
2023-03-22T11:28:49.543Z,99637.03
2023-03-22T11:31:19.252Z,99628.72
2023-03-22T11:34:01.190Z,99629.25
2023-03-22T11:36:29.356Z,99640.22
2023-03-22T11:39:07.973Z,99629.84
2023-03-22T11:41:36.843Z,99628.16
2023-03-22T11:44:12.419Z,99624.75
2023-03-22T11:46:40.358Z,99627.56
2023-03-22T11:49:17.195Z,99633.97
2023-03-22T11:51:44.422Z,99631.78
2023-03-22T11:54:29.518Z,99632.03
2023-03-22T11:57:02.079Z,99634.09
2023-03-22T11:59:36.667Z,99627.22
2023-03-22T12:02:23.799Z,99628.50
2023-03-22T12:05:00.767Z,99625.25
2023-03-22T12:07:29.885Z,99619.75
2023-03-22T12:10:03.641Z,99627.56
2023-03-22T12:12:37.214Z,99616.13
2023-03-22T12:15:40.592Z,99625.34
2023-03-22T12:18:22.878Z,99618.31
2023-03-22T12:20:56.165Z,99619.03
2023-03-22T12:23:26.640Z,99618.56
2023-03-22T12:26:05.709Z,99606.81
2023-03-22T12:28:48.533Z,99608.25
2023-03-22T12:31:27.918Z,99605.28
2023-03-22T12:33:57.944Z,99597.47
2023-03-22T12:36:35.411Z,99603.34
2023-03-22T12:39:03.795Z,99598.78
2023-03-22T12:41:41.594Z,99599.03
2023-03-22T12:44:24.679Z,99598.63
2023-03-22T12:47:03.684Z,99600.44
2023-03-22T12:49:59.072Z,99599.06
2023-03-22T12:52:29.778Z,99603.72
2023-03-22T12:55:01.563Z,99600.25
2023-03-22T12:57:28.812Z,99597.00
2023-03-22T13:00:00.508Z,99600.22
2023-03-22T13:02:32.271Z,99597.00
2023-03-22T13:05:02.198Z,99603.53
2023-03-22T13:07:31.857Z,99606.97
2023-03-22T13:10:21.725Z,99608.41
2023-03-22T13:13:10.973Z,99601.16
2023-03-22T13:15:42.639Z,99602.34
2023-03-22T13:18:40.769Z,99604.88
2023-03-22T13:21:22.922Z,99598.25
2023-03-22T13:24:19.623Z,99602.44
2023-03-22T13:26:51.597Z,99595.59
2023-03-22T13:29:18.772Z,99600.50
2023-03-22T13:31:47.729Z,99595.16
2023-03-22T13:34:20.844Z,99600.16
2023-03-22T13:36:56.481Z,99603.25
2023-03-22T13:39:25.530Z,99608.28
2023-03-22T13:42:22.881Z,99605.91
2023-03-22T13:45:00.125Z,99609.28
2023-03-22T13:48:02.053Z,99607.41
2023-03-22T13:50:31.117Z,99603.38
2023-03-22T13:53:05.915Z,99602.28
2023-03-22T13:55:54.022Z,99600.03
2023-03-22T13:58:45.498Z,99602.44
2023-03-22T14:01:45.076Z,99596.94
2023-03-22T14:04:16.248Z,99606.63
2023-03-22T14:07:20.838Z,99599.91
2023-03-22T14:10:21.524Z,99605.63
2023-03-22T14:12:48.353Z,99603.13
2023-03-22T14:15:19.062Z,99607.44
2023-03-22T14:18:23.527Z,99602.53
2023-03-22T14:20:55.569Z,99607.94
